Aérodrome :
LOGIN :

S'inscrire | Disclaimer

   EN    FR    IT 

 










Légende :    VFR   VFR Marginal   IFR   IFR Intensif   IFR Très Intensif
Visi : 
Plafond : 
>= 8 km
>= 3000ft
5 à 8 km
1000 à 3000 ft
1500m à 5 km
500 à 1000 ft
800 à 1500m
200 à 500 ft
< 800m
< 200 ft
Symboles :   Orages  Brouillard  Fortes neiges  Fortes précipitations  Vent > 20 kt
SIGMETs :   Divers  Orages  Givrage  Turbulence  Onde Orograph.  Cendres Volcan.







- Altitude de l'aérodrome : 141 ft
- Code IATA : SKS


EKSP - Srydstrup Vojens

DERNIER METAR :
  • 250620Z 28004KT 250V310 9999 VCSH FEW020 SCT035 BKN055 01/M01 Q1001 TEMPO 4000 SHRASN BKN012

METARs EXPIRÉS :
  • 250611Z 28002KT 9000 -SG FEW020 SCT035 BKN055 00/M01 Q1001 TEMPO 4000 SHRASN BKN012
  • 250550Z 00000KT 9999 SCT035 BKN055 M00/M02 Q1001 TEMPO 4000 SHRASN BKN012
  • 250520Z 00000KT 9999 FEW035 BKN055 M01/M02 Q1001 TEMPO 4000 SHRASN BKN012
  • 250450Z 00000KT 9999 FEW035 BKN058 M01/M03 Q1001 TEMPO 4000 SHRASN BKN012
  • 250420Z 16003KT 9999 FEW035 BKN095 M01/M03 Q1001 NOSIG
  • 250350Z 00000KT 9999 FEW035 BKN100 M02/M03 Q1001

TAF TAF EKSP
Valide du 25 à 06h jusqu'au 26 à 06h UTC


250455Z 2506/2606 VRB06KT 9999 SCT030
BECMG 2506/2508 28012KT
TEMPO 2506/2510 4000 SHRASN BKN012CB
TEMPO 2510/2517 27015G25KT 5000 -SHRA SCT020CB
BECMG 2517/2519 30005KT
TEMPO 2517/2606 5000 -SHRA SCT020CB
Pas de NOTAMs connus pour ce terrain.



MET'MAP, la Météo Aéronautique d'un coup d'oeil ! - Copyright ORBIFLY Décembre 2007 - Disclaimer

ORBIFLY MET'MAP TEAM :

Programmation & Développement : Alexandra Zaïnal
Conception & Développement : Baudouin d'Aumeries
Co-Programmation & Développement : Marc-Olivier Méhu
Soutien technique & logistique : Manuel Goepfert

Contact : metmap@orbifly.com




SOURCES & CREDITS :

   NOAA